createdAt,value
2023-05-27T00:00:22.686Z,11.50
2023-05-27T00:02:52.547Z,11.50
2023-05-27T00:05:19.813Z,11.40
2023-05-27T00:07:47.147Z,11.40
2023-05-27T00:10:14.292Z,11.40
2023-05-27T00:12:41.140Z,11.30
2023-05-27T00:15:09.319Z,11.30
2023-05-27T00:17:36.766Z,11.30
2023-05-27T00:20:09.003Z,11.30
2023-05-27T00:22:36.402Z,11.30
2023-05-27T00:25:04.229Z,11.20
2023-05-27T00:27:31.589Z,11.20
2023-05-27T00:29:58.782Z,11.10
2023-05-27T00:32:26.358Z,11.10
2023-05-27T00:34:53.831Z,11.10
2023-05-27T00:37:21.493Z,11.10
2023-05-27T00:39:48.865Z,11.00
2023-05-27T00:42:16.968Z,10.90
2023-05-27T00:44:44.111Z,11.00
2023-05-27T00:47:11.251Z,10.90
2023-05-27T00:49:38.818Z,10.90
2023-05-27T00:52:06.703Z,10.90
2023-05-27T00:54:33.956Z,10.80
2023-05-27T00:57:02.513Z,10.90
2023-05-27T00:59:29.743Z,10.80
2023-05-27T01:02:00.388Z,10.80
2023-05-27T01:04:27.998Z,10.70
2023-05-27T01:07:01.275Z,10.70
2023-05-27T01:09:33.464Z,10.70
2023-05-27T01:12:20.002Z,10.60
2023-05-27T01:14:48.964Z,10.60
2023-05-27T01:17:17.646Z,10.50
2023-05-27T01:19:46.117Z,10.50
2023-05-27T01:22:15.142Z,10.50
2023-05-27T01:24:44.830Z,10.40
2023-05-27T01:27:16.620Z,10.40
2023-05-27T01:29:44.553Z,10.40
2023-05-27T01:32:12.223Z,10.40
2023-05-27T01:34:59.835Z,10.40
2023-05-27T01:37:30.859Z,10.30
2023-05-27T01:39:58.533Z,10.30
2023-05-27T01:42:25.900Z,10.20
2023-05-27T01:44:54.328Z,10.20
2023-05-27T01:47:21.716Z,10.20
2023-05-27T01:49:50.996Z,10.20
2023-05-27T01:52:18.232Z,10.20
2023-05-27T01:54:45.641Z,10.10
2023-05-27T01:57:12.933Z,10.10
2023-05-27T01:59:40.407Z,10.10
2023-05-27T02:02:08.574Z,10.10
2023-05-27T02:04:36.171Z,10.10
2023-05-27T02:07:04.985Z,10.00
2023-05-27T02:09:32.458Z,10.00
2023-05-27T02:11:59.692Z,9.90
2023-05-27T02:14:28.888Z,9.90
2023-05-27T02:16:58.765Z,9.90
2023-05-27T02:19:26.752Z,9.90
2023-05-27T02:21:57.627Z,9.90
2023-05-27T02:24:24.812Z,9.90
2023-05-27T02:26:52.229Z,9.90
2023-05-27T02:29:20.616Z,9.90
2023-05-27T02:31:49.727Z,9.90
2023-05-27T02:34:17.562Z,9.90
2023-05-27T02:36:45.102Z,9.80
2023-05-27T02:39:15.369Z,9.80
2023-05-27T02:41:43.057Z,9.90
2023-05-27T02:44:11.572Z,9.80
2023-05-27T02:46:38.895Z,9.80
2023-05-27T02:49:07.626Z,9.80
2023-05-27T02:51:36.171Z,9.80
2023-05-27T02:54:03.960Z,9.80
2023-05-27T02:56:31.543Z,9.70
2023-05-27T02:58:58.867Z,9.70
2023-05-27T03:01:26.947Z,9.70
2023-05-27T03:04:03.699Z,9.70
2023-05-27T03:06:33.517Z,9.70
2023-05-27T03:09:01.121Z,9.60
2023-05-27T03:11:28.257Z,9.60
2023-05-27T03:13:56.251Z,9.60
2023-05-27T03:16:24.265Z,9.60
2023-05-27T03:18:54.440Z,9.60
2023-05-27T03:21:21.640Z,9.60
2023-05-27T03:23:48.867Z,9.60
2023-05-27T03:26:16.450Z,9.60
2023-05-27T03:28:44.044Z,9.60
2023-05-27T03:31:14.097Z,9.60
2023-05-27T03:33:56.562Z,9.60
2023-05-27T03:36:23.902Z,9.60
2023-05-27T03:38:52.454Z,9.50
2023-05-27T03:41:19.738Z,9.50
2023-05-27T03:43:47.338Z,9.50
2023-05-27T03:46:16.197Z,9.50
2023-05-27T03:48:45.961Z,9.50
2023-05-27T03:51:14.296Z,9.50
2023-05-27T03:53:41.358Z,9.50
2023-05-27T03:56:08.481Z,9.50
2023-05-27T03:58:35.878Z,9.60
2023-05-27T04:01:04.886Z,9.60
2023-05-27T04:03:33.205Z,9.70
2023-05-27T04:06:00.479Z,9.70
2023-05-27T04:08:28.610Z,9.70
2023-05-27T04:10:56.964Z,9.90
2023-05-27T04:13:25.929Z,10.00
2023-05-27T04:15:53.530Z,10.10
2023-05-27T04:18:22.392Z,10.20
2023-05-27T04:20:51.660Z,10.40
2023-05-27T04:23:19.921Z,10.50
2023-05-27T04:25:49.811Z,10.80
2023-05-27T04:28:17.683Z,11.00
2023-05-27T04:30:47.188Z,11.10
2023-05-27T04:33:34.018Z,11.30
2023-05-27T04:36:01.301Z,11.50
2023-05-27T04:38:35.527Z,11.60
2023-05-27T04:41:06.012Z,11.80
2023-05-27T04:43:50.207Z,11.90
2023-05-27T04:46:20.972Z,12.00
2023-05-27T04:48:48.810Z,12.20
2023-05-27T04:51:17.013Z,12.30
2023-05-27T04:53:47.029Z,12.40
2023-05-27T04:56:16.204Z,12.50
2023-05-27T04:58:49.865Z,12.60
2023-05-27T05:01:23.302Z,12.80
2023-05-27T05:04:13.835Z,13.00
2023-05-27T05:06:51.834Z,13.20
2023-05-27T05:09:19.072Z,13.30
2023-05-27T05:11:47.343Z,13.40
2023-05-27T05:14:15.291Z,13.60
2023-05-27T05:16:42.770Z,13.60
2023-05-27T05:19:10.890Z,13.60
2023-05-27T05:21:39.684Z,13.60
2023-05-27T05:24:10.099Z,13.70
2023-05-27T05:26:37.818Z,13.90
2023-05-27T05:29:05.297Z,14.00
2023-05-27T05:31:33.044Z,14.10
2023-05-27T05:34:00.302Z,14.20
2023-05-27T05:36:28.067Z,14.30
2023-05-27T05:38:59.616Z,14.50
2023-05-27T05:41:27.177Z,14.60
2023-05-27T05:43:54.723Z,14.60
2023-05-27T05:46:21.809Z,14.50
2023-05-27T05:48:51.302Z,14.60
2023-05-27T05:51:23.410Z,14.70
2023-05-27T05:53:56.158Z,14.80
2023-05-27T05:56:24.265Z,14.70
2023-05-27T05:58:52.029Z,14.80
2023-05-27T06:01:19.343Z,15.00
2023-05-27T06:03:47.106Z,15.00
2023-05-27T06:06:27.310Z,14.90
2023-05-27T06:09:17.522Z,14.90
2023-05-27T06:11:45.226Z,14.70
2023-05-27T06:14:12.996Z,14.70
2023-05-27T06:16:41.078Z,14.80
2023-05-27T06:19:09.317Z,14.90
2023-05-27T06:21:36.635Z,15.00
2023-05-27T06:24:22.086Z,15.10
2023-05-27T06:27:00.131Z,15.00
2023-05-27T06:29:27.828Z,15.00
2023-05-27T06:31:56.131Z,15.10
2023-05-27T06:34:23.920Z,15.10
2023-05-27T06:36:51.615Z,15.00
2023-05-27T06:39:18.808Z,14.90
2023-05-27T06:41:45.881Z,14.80
2023-05-27T06:44:46.025Z,14.70
2023-05-27T06:47:26.225Z,14.60
2023-05-27T06:49:54.319Z,14.60
2023-05-27T06:52:22.119Z,14.60
2023-05-27T06:55:09.721Z,14.70
2023-05-27T06:58:07.504Z,14.60
2023-05-27T07:01:01.192Z,14.50
2023-05-27T07:03:35.976Z,14.50
2023-05-27T07:06:05.120Z,14.50
2023-05-27T07:08:38.907Z,14.40
2023-05-27T07:11:17.355Z,14.50
2023-05-27T07:13:44.670Z,14.40
2023-05-27T07:16:13.067Z,14.40
2023-05-27T07:18:40.198Z,14.50
2023-05-27T07:21:08.172Z,14.50
2023-05-27T07:23:35.898Z,14.60
2023-05-27T07:26:23.359Z,14.60
2023-05-27T07:28:52.044Z,14.60
2023-05-27T07:31:37.826Z,14.60
2023-05-27T07:34:12.399Z,14.60
2023-05-27T07:36:39.635Z,14.70
2023-05-27T07:39:06.996Z,14.80
2023-05-27T07:41:34.286Z,14.90
2023-05-27T07:44:03.801Z,15.00
2023-05-27T07:46:31.634Z,15.00
2023-05-27T07:48:58.495Z,15.00
2023-05-27T07:51:26.696Z,15.10
2023-05-27T07:53:56.073Z,15.20
2023-05-27T07:56:26.306Z,15.20
2023-05-27T07:58:53.858Z,15.30
2023-05-27T08:01:22.044Z,15.30
2023-05-27T08:03:55.709Z,15.30
2023-05-27T08:06:49.000Z,15.30
2023-05-27T08:09:33.433Z,15.30
2023-05-27T08:12:19.364Z,15.30
2023-05-27T08:15:11.355Z,15.30
2023-05-27T08:17:59.463Z,15.30
2023-05-27T08:20:43.360Z,15.30
2023-05-27T08:23:22.989Z,15.40
2023-05-27T08:26:13.018Z,15.40
2023-05-27T08:28:55.438Z,15.50
2023-05-27T08:31:45.394Z,15.50
2023-05-27T08:34:12.631Z,15.60
2023-05-27T08:36:39.867Z,15.60
2023-05-27T08:39:07.618Z,15.70
2023-05-27T08:41:42.568Z,15.70
2023-05-27T08:46:40.372Z,15.90
2023-05-27T08:49:09.543Z,16.00
2023-05-27T08:51:40.265Z,16.00
2023-05-27T08:54:09.702Z,16.10
2023-05-27T08:56:38.432Z,16.20
2023-05-27T08:59:06.929Z,16.30
2023-05-27T09:01:34.381Z,16.30
2023-05-27T09:04:03.018Z,16.40
2023-05-27T09:06:32.012Z,16.40
2023-05-27T09:08:59.414Z,16.40
2023-05-27T09:11:27.840Z,16.40
2023-05-27T09:13:57.249Z,16.40
2023-05-27T09:16:24.533Z,16.40
2023-05-27T09:18:52.516Z,16.50
2023-05-27T09:21:21.131Z,16.50
2023-05-27T09:23:48.524Z,16.50
2023-05-27T09:26:16.305Z,16.60
2023-05-27T09:28:44.722Z,16.60
2023-05-27T09:31:13.036Z,16.70
2023-05-27T09:33:41.242Z,16.80
2023-05-27T09:36:10.465Z,16.80
2023-05-27T09:38:38.262Z,16.90
2023-05-27T09:41:05.972Z,16.90
2023-05-27T09:43:33.548Z,16.90
2023-05-27T09:46:04.790Z,16.80
2023-05-27T09:48:34.844Z,16.90
2023-05-27T09:51:02.723Z,16.90
2023-05-27T09:53:29.901Z,17.00
2023-05-27T09:55:58.385Z,17.00
2023-05-27T09:58:26.004Z,17.10
2023-05-27T10:00:58.071Z,17.10
2023-05-27T10:03:25.666Z,17.10
2023-05-27T10:05:52.916Z,17.10
2023-05-27T10:10:51.219Z,17.10
2023-05-27T10:13:20.032Z,17.20
2023-05-27T10:15:48.976Z,17.30
2023-05-27T10:18:23.042Z,17.40
2023-05-27T10:20:53.215Z,17.40
2023-05-27T10:23:24.759Z,17.40
2023-05-27T10:26:08.645Z,17.50
2023-05-27T10:28:37.858Z,17.50
2023-05-27T10:31:12.772Z,17.50
2023-05-27T10:33:41.861Z,17.50
2023-05-27T10:36:10.927Z,17.50
2023-05-27T10:38:38.552Z,17.50
2023-05-27T10:41:09.858Z,17.50
2023-05-27T10:43:39.971Z,17.50
2023-05-27T10:46:09.008Z,17.60
2023-05-27T10:48:36.561Z,17.60
2023-05-27T10:51:06.178Z,17.60
2023-05-27T10:53:36.033Z,17.60
2023-05-27T10:56:07.133Z,17.60
2023-05-27T10:58:39.267Z,17.70
2023-05-27T11:01:15.258Z,17.60
2023-05-27T11:03:43.699Z,17.70
2023-05-27T11:06:11.259Z,17.80
2023-05-27T11:08:40.990Z,17.80
2023-05-27T11:11:09.145Z,17.80
2023-05-27T11:13:37.467Z,17.90
2023-05-27T11:16:05.790Z,17.90
2023-05-27T11:18:42.293Z,18.00
2023-05-27T11:21:10.835Z,18.10
2023-05-27T11:23:44.209Z,18.20
2023-05-27T11:26:15.088Z,18.10
2023-05-27T11:28:59.098Z,18.10
2023-05-27T11:31:31.273Z,18.10
2023-05-27T11:34:01.745Z,18.10
2023-05-27T11:36:30.336Z,18.20
2023-05-27T11:39:03.607Z,18.20
2023-05-27T11:41:38.490Z,18.20
2023-05-27T11:44:07.660Z,18.20
2023-05-27T11:46:39.217Z,18.20
2023-05-27T11:49:11.811Z,18.20
2023-05-27T11:51:45.736Z,18.30
2023-05-27T11:54:22.629Z,18.40
2023-05-27T11:56:55.886Z,18.50
2023-05-27T11:59:26.550Z,18.50
2023-05-27T12:02:02.786Z,18.60
2023-05-27T12:04:37.502Z,18.60
2023-05-27T12:07:20.002Z,18.60
2023-05-27T12:09:50.744Z,18.60
2023-05-27T12:12:28.304Z,18.70
2023-05-27T12:15:02.943Z,18.80
2023-05-27T12:17:31.267Z,18.80
2023-05-27T12:20:03.786Z,18.90
2023-05-27T12:22:31.279Z,18.90
2023-05-27T12:24:59.946Z,19.00
2023-05-27T12:27:27.668Z,19.00
2023-05-27T12:29:55.485Z,19.10
2023-05-27T12:32:22.969Z,19.10
2023-05-27T12:34:56.727Z,19.20
2023-05-27T12:37:29.429Z,19.20
2023-05-27T12:39:57.218Z,19.10
2023-05-27T12:42:24.657Z,19.20
2023-05-27T12:44:55.906Z,19.10
2023-05-27T12:47:32.506Z,19.20
2023-05-27T12:50:09.622Z,19.20
2023-05-27T12:52:46.173Z,19.20
2023-05-27T12:55:14.686Z,19.30
2023-05-27T12:57:42.165Z,19.30
2023-05-27T13:00:25.535Z,19.40
2023-05-27T13:02:54.717Z,19.40
2023-05-27T13:05:24.645Z,19.40
2023-05-27T13:07:59.585Z,19.50
2023-05-27T13:10:33.639Z,19.60
2023-05-27T13:13:04.929Z,19.60
2023-05-27T13:15:36.553Z,19.60
2023-05-27T13:18:06.161Z,19.60
2023-05-27T13:20:33.445Z,19.60
2023-05-27T13:23:02.144Z,19.60
2023-05-27T13:25:30.570Z,19.60
2023-05-27T13:27:58.399Z,19.70
2023-05-27T13:30:28.987Z,19.70
2023-05-27T13:33:02.167Z,19.70
2023-05-27T13:35:33.407Z,19.80
2023-05-27T13:38:04.709Z,19.80
2023-05-27T13:40:32.226Z,19.90
2023-05-27T13:43:00.068Z,20.00
2023-05-27T13:45:29.444Z,20.00
2023-05-27T13:47:58.517Z,20.00
2023-05-27T13:50:26.169Z,20.00
2023-05-27T13:52:54.519Z,20.00
2023-05-27T13:55:32.716Z,20.00
2023-05-27T13:58:03.682Z,20.00
2023-05-27T14:00:32.122Z,20.10
2023-05-27T14:03:02.576Z,20.10
2023-05-27T14:05:31.272Z,20.10
2023-05-27T14:07:58.933Z,20.10
2023-05-27T14:10:26.402Z,20.10
2023-05-27T14:12:53.333Z,20.10
2023-05-27T14:15:20.564Z,20.10
2023-05-27T14:17:47.942Z,20.10
2023-05-27T14:20:16.102Z,20.10
2023-05-27T14:22:43.670Z,20.10
2023-05-27T14:25:11.452Z,20.20
2023-05-27T14:27:41.873Z,20.20
2023-05-27T14:30:09.884Z,20.30
2023-05-27T14:32:38.443Z,20.30
2023-05-27T14:35:05.678Z,20.30
2023-05-27T14:37:33.020Z,20.30
2023-05-27T14:40:00.422Z,20.30
2023-05-27T14:42:27.647Z,20.40
2023-05-27T14:44:54.752Z,20.40
2023-05-27T14:47:25.662Z,20.40
2023-05-27T14:49:57.491Z,20.40
2023-05-27T14:52:26.265Z,20.40
2023-05-27T14:54:57.156Z,20.40
2023-05-27T14:57:24.795Z,20.40
2023-05-27T14:59:51.862Z,20.40
2023-05-27T15:02:18.871Z,20.40
2023-05-27T15:04:46.373Z,20.50
2023-05-27T15:07:16.651Z,20.60
2023-05-27T15:09:48.599Z,20.70
2023-05-27T15:12:16.073Z,20.80
2023-05-27T15:14:43.231Z,20.80
2023-05-27T15:17:13.553Z,20.90
2023-05-27T15:19:40.817Z,20.90
2023-05-27T15:22:08.535Z,20.90
2023-05-27T15:24:35.677Z,20.90
2023-05-27T15:27:08.531Z,20.90
2023-05-27T15:29:36.176Z,20.90
2023-05-27T15:32:12.624Z,20.90
2023-05-27T15:34:40.014Z,20.90
2023-05-27T15:37:07.534Z,20.90
2023-05-27T15:39:41.900Z,20.90
2023-05-27T15:42:09.530Z,20.90
2023-05-27T15:44:37.134Z,20.90
2023-05-27T15:47:04.925Z,20.90
2023-05-27T15:49:32.314Z,20.90
2023-05-27T15:51:59.899Z,20.90
2023-05-27T15:54:30.567Z,20.90
2023-05-27T15:57:01.814Z,20.90
2023-05-27T15:59:31.609Z,20.90
2023-05-27T16:01:59.968Z,20.90
2023-05-27T16:04:27.231Z,21.00
2023-05-27T16:06:54.862Z,20.90
2023-05-27T16:09:24.321Z,21.00
2023-05-27T16:11:54.468Z,21.00
2023-05-27T16:14:35.357Z,21.00
2023-05-27T16:17:05.788Z,21.10
2023-05-27T16:19:33.604Z,21.10
2023-05-27T16:22:01.694Z,21.10
2023-05-27T16:24:28.900Z,21.10
2023-05-27T16:26:57.015Z,21.20
2023-05-27T16:29:24.595Z,21.30
2023-05-27T16:31:52.817Z,21.30
2023-05-27T16:34:23.674Z,21.40
2023-05-27T16:36:50.973Z,21.50
2023-05-27T16:39:18.577Z,21.50
2023-05-27T16:41:46.385Z,21.50
2023-05-27T16:44:14.517Z,21.60
2023-05-27T16:46:41.937Z,21.70
2023-05-27T16:49:11.161Z,21.90
2023-05-27T16:51:41.461Z,22.30
2023-05-27T16:54:12.104Z,22.80
2023-05-27T16:56:40.700Z,23.30
2023-05-27T16:59:13.183Z,23.60
2023-05-27T17:01:43.669Z,23.90
2023-05-27T17:04:14.454Z,24.10
2023-05-27T17:06:50.296Z,24.30
2023-05-27T17:09:19.315Z,24.50
2023-05-27T17:11:52.133Z,24.70
2023-05-27T17:14:20.141Z,24.80
2023-05-27T17:16:50.495Z,25.00
2023-05-27T17:19:18.384Z,25.00
2023-05-27T17:21:53.229Z,25.00
2023-05-27T17:24:23.670Z,25.10
2023-05-27T17:27:02.782Z,25.00
2023-05-27T17:29:34.768Z,25.00
2023-05-27T17:32:05.544Z,25.00
2023-05-27T17:34:32.890Z,25.10
2023-05-27T17:37:00.275Z,25.20
2023-05-27T17:39:34.776Z,25.10
2023-05-27T17:42:06.781Z,25.10
2023-05-27T17:44:36.050Z,25.00
2023-05-27T17:47:06.331Z,25.10
2023-05-27T17:49:36.449Z,25.00
2023-05-27T17:52:21.038Z,24.70
2023-05-27T17:54:55.465Z,24.30
2023-05-27T17:57:24.152Z,24.00
2023-05-27T18:00:04.941Z,23.60
2023-05-27T18:02:43.892Z,23.20
2023-05-27T18:05:11.486Z,22.90
2023-05-27T18:07:40.734Z,22.70
2023-05-27T18:10:08.321Z,22.40
2023-05-27T18:12:38.157Z,22.20
2023-05-27T18:15:06.877Z,22.10
2023-05-27T18:17:34.489Z,21.90
2023-05-27T18:20:03.286Z,21.70
2023-05-27T18:22:33.602Z,21.60
2023-05-27T18:25:03.561Z,21.50
2023-05-27T18:27:32.462Z,21.40
2023-05-27T18:29:59.636Z,21.30
2023-05-27T18:32:27.454Z,21.20
2023-05-27T18:34:55.195Z,21.10
2023-05-27T18:37:22.557Z,21.10
2023-05-27T18:39:50.765Z,21.00
2023-05-27T18:42:22.203Z,20.90
2023-05-27T18:44:55.970Z,20.90
2023-05-27T18:47:23.322Z,20.80
2023-05-27T18:49:53.838Z,20.80
2023-05-27T18:52:22.037Z,20.60
2023-05-27T18:54:50.544Z,20.50
2023-05-27T18:57:23.805Z,20.50
2023-05-27T18:59:55.086Z,20.40
2023-05-27T19:02:25.385Z,20.30
2023-05-27T19:04:56.835Z,20.20
2023-05-27T19:07:24.273Z,20.10
2023-05-27T19:09:53.619Z,20.00
2023-05-27T19:12:20.847Z,20.00
2023-05-27T19:14:48.438Z,19.90
2023-05-27T19:17:17.098Z,19.80
2023-05-27T19:19:46.509Z,19.70
2023-05-27T19:22:13.938Z,19.60
2023-05-27T19:24:42.099Z,19.50
2023-05-27T19:27:09.444Z,19.50
2023-05-27T19:29:39.678Z,19.40
2023-05-27T19:32:07.167Z,19.30
2023-05-27T19:34:36.611Z,19.30
2023-05-27T19:37:04.222Z,19.20
2023-05-27T19:39:34.087Z,19.10
2023-05-27T19:42:04.656Z,19.10
2023-05-27T19:44:34.968Z,19.00
2023-05-27T19:47:06.730Z,19.00
2023-05-27T19:49:35.509Z,18.80
2023-05-27T19:52:06.995Z,18.80
2023-05-27T19:54:38.414Z,18.70
2023-05-27T19:57:08.571Z,18.70
2023-05-27T19:59:44.718Z,18.60
2023-05-27T20:02:12.481Z,18.50
2023-05-27T20:04:41.465Z,18.40
2023-05-27T20:07:09.847Z,18.40
2023-05-27T20:09:44.858Z,18.40
2023-05-27T20:12:38.558Z,18.30
2023-05-27T20:15:07.254Z,18.30
2023-05-27T20:17:35.404Z,18.20
2023-05-27T20:20:05.125Z,18.20
2023-05-27T20:22:42.175Z,18.10
2023-05-27T20:25:10.247Z,18.10
2023-05-27T20:27:40.383Z,18.00
2023-05-27T20:30:09.604Z,18.00
2023-05-27T20:32:40.283Z,17.90
2023-05-27T20:35:15.747Z,17.90
2023-05-27T20:37:43.522Z,17.90
2023-05-27T20:40:11.961Z,17.80
2023-05-27T20:42:39.696Z,17.80
2023-05-27T20:45:14.593Z,17.70
2023-05-27T20:47:44.269Z,17.60
2023-05-27T20:50:11.387Z,17.60
2023-05-27T20:52:38.970Z,17.50
2023-05-27T20:55:09.635Z,17.50
2023-05-27T20:57:41.250Z,17.50
2023-05-27T21:00:09.801Z,17.50
2023-05-27T21:02:38.592Z,17.40
2023-05-27T21:05:06.287Z,17.40
2023-05-27T21:07:40.124Z,17.30
2023-05-27T21:10:12.367Z,17.20
2023-05-27T21:12:39.846Z,17.20
2023-05-27T21:15:12.919Z,17.10
2023-05-27T21:17:41.676Z,17.10
2023-05-27T21:20:14.275Z,17.10
2023-05-27T21:22:44.413Z,17.00
2023-05-27T21:25:15.453Z,17.00
2023-05-27T21:27:45.651Z,17.00
2023-05-27T21:30:17.572Z,16.90
2023-05-27T21:32:48.664Z,16.90
2023-05-27T21:35:20.260Z,16.90
2023-05-27T21:37:48.269Z,16.80
2023-05-27T21:40:18.836Z,16.80
2023-05-27T21:42:46.995Z,16.70
2023-05-27T21:45:14.676Z,16.70
2023-05-27T21:47:49.090Z,16.70
2023-05-27T21:50:18.431Z,16.70
2023-05-27T21:52:46.010Z,16.60
2023-05-27T21:55:13.242Z,16.50
2023-05-27T21:57:42.146Z,16.50
2023-05-27T22:00:15.197Z,16.50
2023-05-27T22:02:45.101Z,16.40
2023-05-27T22:05:18.345Z,16.40
2023-05-27T22:07:48.481Z,16.40
2023-05-27T22:10:16.483Z,16.30
2023-05-27T22:12:48.853Z,16.30
2023-05-27T22:15:25.383Z,16.20
2023-05-27T22:17:55.442Z,16.20
2023-05-27T22:20:23.054Z,16.10
2023-05-27T22:22:50.434Z,16.00
2023-05-27T22:25:17.892Z,16.00
2023-05-27T22:27:45.138Z,16.00
2023-05-27T22:30:12.832Z,16.00
2023-05-27T22:32:40.825Z,15.90
2023-05-27T22:35:12.340Z,15.90
2023-05-27T22:37:39.806Z,15.80
2023-05-27T22:40:12.078Z,15.70
2023-05-27T22:42:42.600Z,15.70
2023-05-27T22:45:09.961Z,15.60
2023-05-27T22:47:38.857Z,15.60
2023-05-27T22:50:10.527Z,15.60
2023-05-27T22:52:37.945Z,15.50
2023-05-27T22:55:08.244Z,15.50
2023-05-27T22:57:35.819Z,15.50
2023-05-27T23:00:06.708Z,15.40
2023-05-27T23:02:37.026Z,15.30
2023-05-27T23:05:04.507Z,15.30
2023-05-27T23:07:31.903Z,15.20
2023-05-27T23:10:00.225Z,15.20
2023-05-27T23:12:33.264Z,15.20
2023-05-27T23:15:01.304Z,15.10
2023-05-27T23:17:29.071Z,15.10
2023-05-27T23:19:56.342Z,15.00
2023-05-27T23:22:26.967Z,15.00
2023-05-27T23:24:54.135Z,15.00
2023-05-27T23:27:21.578Z,14.90
2023-05-27T23:29:50.388Z,14.90
2023-05-27T23:32:20.628Z,14.80
2023-05-27T23:34:51.006Z,14.80
2023-05-27T23:37:19.490Z,14.80
2023-05-27T23:39:47.114Z,14.70
2023-05-27T23:42:14.138Z,14.80
2023-05-27T23:44:41.409Z,14.70
2023-05-27T23:47:10.446Z,14.70
2023-05-27T23:49:41.422Z,14.60
2023-05-27T23:52:09.358Z,14.60
2023-05-27T23:54:37.517Z,14.60
2023-05-27T23:57:07.842Z,14.50
2023-05-27T23:59:35.225Z,14.50
